Time;durP1;ratioP1;P1;durP2;ratioP2;P2;SDS_P1;SDS_P2;PMS_P1;PMS_P2;Temp;Humidity;BMP_temperature;BMP_pressure;BME280_temperature;BME280_humidity;BME280_pressure;Samples;Min_cycle;Max_cycle;Signal;HPM_P1;HPM_P2
2024/01/31 00:00:07;;;;;;;13.10;2.80;;;;;;;-144.26;100.00;64884.69;5014673;28;20057;-79
2024/01/31 00:02:32;;;;;;;10.65;3.47;;;;;;;-144.26;100.00;64884.69;5014374;28;20478;-79
2024/01/31 00:04:57;;;;;;;9.02;2.30;;;;;;;-144.26;100.00;64884.69;5014248;28;20041;-80
2024/01/31 00:07:23;;;;;;;11.95;2.60;;;;;;;-144.26;100.00;64884.69;5014350;28;20037;-77
2024/01/31 00:09:48;;;;;;;9.43;2.45;;;;;;;-144.26;100.00;64884.69;5014170;28;20034;-76
2024/01/31 00:12:13;;;;;;;8.18;2.13;;;;;;;-144.26;100.00;64884.69;5014188;28;20034;-76
2024/01/31 00:14:39;;;;;;;12.32;3.08;;;;;;;-144.26;100.00;64884.69;5014316;28;20105;-76
2024/01/31 00:17:04;;;;;;;9.13;2.28;;;;;;;-144.26;100.00;64884.69;5013913;28;20084;-76
2024/01/31 00:19:29;;;;;;;9.75;2.42;;;;;;;-144.26;100.00;64884.69;5014149;28;20525;-76
2024/01/31 00:21:54;;;;;;;9.25;2.47;;;;;;;-144.26;100.00;64884.69;5014006;28;20014;-76
2024/01/31 00:24:20;;;;;;;10.55;2.92;;;;;;;-144.26;100.00;64884.69;5014194;28;20026;-76
2024/01/31 00:26:45;;;;;;;12.45;2.70;;;;;;;-144.26;100.00;64884.69;5014014;28;20100;-77
2024/01/31 00:29:10;;;;;;;8.40;2.70;;;;;;;-144.26;100.00;64884.69;5014061;28;20536;-76
2024/01/31 00:31:36;;;;;;;13.00;2.72;;;;;;;-144.26;100.00;64884.69;5014043;28;20041;-76
2024/01/31 00:34:01;;;;;;;9.55;3.03;;;;;;;-144.26;100.00;64884.69;5013827;28;20041;-76
2024/01/31 00:36:27;;;;;;;10.98;2.83;;;;;;;-144.26;100.00;64884.69;5013709;28;20335;-78
2024/01/31 00:38:53;;;;;;;9.40;3.15;;;;;;;-144.26;100.00;64884.69;5013781;28;20114;-77
2024/01/31 00:41:18;;;;;;;8.63;2.95;;;;;;;-144.26;100.00;64884.69;4995875;28;20046;-77
2024/01/31 00:43:44;;;;;;;11.10;3.50;;;;;;;-144.26;100.00;64884.69;5013079;28;20108;-76
2024/01/31 00:46:10;;;;;;;7.75;2.90;;;;;;;-144.26;100.00;64884.69;5013846;28;20061;-76
2024/01/31 00:48:35;;;;;;;10.90;2.97;;;;;;;-144.26;100.00;64884.69;5013638;28;20030;-76
2024/01/31 00:51:00;;;;;;;11.45;3.65;;;;;;;-144.26;100.00;64884.69;5013633;28;20034;-79
2024/01/31 00:53:26;;;;;;;10.18;3.10;;;;;;;-144.26;100.00;64884.69;5013458;28;20022;-79
2024/01/31 00:55:51;;;;;;;9.73;3.10;;;;;;;-144.26;100.00;64884.69;5013561;28;20057;-78
2024/01/31 00:58:16;;;;;;;9.38;2.90;;;;;;;-144.26;100.00;64884.69;5013445;28;20030;-76
2024/01/31 01:00:42;;;;;;;9.48;2.85;;;;;;;-144.26;100.00;64884.69;5013606;28;20041;-79
2024/01/31 01:03:07;;;;;;;11.43;2.85;;;;;;;-144.26;100.00;64884.69;4995669;28;20037;-77
2024/01/31 01:05:32;;;;;;;10.38;3.38;;;;;;;-144.26;100.00;64884.69;5013505;28;20136;-76
2024/01/31 01:08:00;;;;;;;12.07;3.58;;;;;;;-144.26;100.00;64884.69;5013289;28;20062;-75
2024/01/31 01:10:25;;;;;;;15.55;3.53;;;;;;;-144.26;100.00;64884.69;5013175;28;20495;-77
2024/01/31 01:12:50;;;;;;;9.20;3.10;;;;;;;-144.26;100.00;64884.69;5013396;28;20026;-76
2024/01/31 01:15:18;;;;;;;13.57;3.33;;;;;;;-144.26;100.00;64884.69;5013400;28;20105;-77
2024/01/31 01:17:44;;;;;;;11.65;3.28;;;;;;;-144.26;100.00;64884.69;5013083;28;20029;-77
2024/01/31 01:20:10;;;;;;;6.05;2.70;;;;;;;-144.26;100.00;64884.69;5013163;28;20026;-77
2024/01/31 01:22:36;;;;;;;7.30;2.50;;;;;;;-144.26;100.00;64884.69;5013003;28;20022;-77
2024/01/31 01:25:01;;;;;;;11.65;3.00;;;;;;;-144.26;100.00;64884.69;5012977;28;20128;-78
2024/01/31 01:27:26;;;;;;;11.90;2.33;;;;;;;-144.26;100.00;64884.69;5013116;28;20455;-78
2024/01/31 01:29:52;;;;;;;8.07;2.50;;;;;;;-144.26;100.00;64884.69;5013095;28;20076;-76
2024/01/31 01:32:17;;;;;;;9.40;2.53;;;;;;;-144.26;100.00;64884.69;4995084;28;20099;-77
2024/01/31 01:34:43;;;;;;;12.55;2.67;;;;;;;-144.26;100.00;64884.69;5012979;28;20037;-76
2024/01/31 01:37:08;;;;;;;7.72;2.38;;;;;;;-144.26;100.00;64884.69;4994880;28;20091;-77
2024/01/31 01:39:37;;;;;;;8.48;2.95;;;;;;;-144.26;100.00;64884.69;5013007;28;20037;-77
2024/01/31 01:42:02;;;;;;;9.48;2.28;;;;;;;-144.26;100.00;64884.69;5013002;28;20120;-77
2024/01/31 01:44:33;;;;;;;11.27;3.10;;;;;;;-144.26;100.00;64884.69;5013213;28;20500;-78
2024/01/31 01:47:00;;;;;;;7.22;2.50;;;;;;;-144.26;100.00;64884.69;5013002;28;20030;-76
2024/01/31 01:49:26;;;;;;;5.78;2.33;;;;;;;-144.26;100.00;64884.69;5012539;28;20466;-76
2024/01/31 01:51:52;;;;;;;11.45;2.50;;;;;;;-144.26;100.00;64884.69;5012666;28;20461;-77
2024/01/31 01:54:20;;;;;;;7.93;2.50;;;;;;;-144.26;100.00;64884.69;5013348;28;20161;-75
2024/01/31 01:56:47;;;;;;;10.20;2.05;;;;;;;-144.26;100.00;64884.69;5016758;28;20036;-75
2024/01/31 01:59:14;;;;;;;8.02;2.17;;;;;;;-144.26;100.00;64884.69;5016673;28;20164;-76
2024/01/31 02:01:41;;;;;;;8.73;2.22;;;;;;;-144.26;100.00;64884.69;5016668;28;20026;-75
2024/01/31 02:04:08;;;;;;;7.32;2.25;;;;;;;-144.26;100.00;64884.69;5016471;28;20585;-75
2024/01/31 02:06:33;;;;;;;5.65;2.15;;;;;;;-144.26;100.00;64884.69;5016486;28;20026;-76
2024/01/31 02:08:59;;;;;;;7.72;1.98;;;;;;;-144.26;100.00;64884.69;4998743;28;20386;-75
2024/01/31 02:11:24;;;;;;;6.82;1.92;;;;;;;-144.26;100.00;64884.69;5016474;28;20225;-76
2024/01/31 02:13:50;;;;;;;8.35;2.53;;;;;;;-144.26;100.00;64884.69;5016564;28;20081;-75
2024/01/31 02:16:15;;;;;;;9.63;2.35;;;;;;;-144.26;100.00;64884.69;5016378;28;20056;-77
2024/01/31 02:18:41;;;;;;;7.90;2.28;;;;;;;-144.26;100.00;64884.69;5016069;28;20076;-76
2024/01/31 02:21:06;;;;;;;8.23;2.00;;;;;;;-144.26;100.00;64884.69;5016243;28;20022;-75
2024/01/31 02:23:31;;;;;;;6.40;1.88;;;;;;;-144.26;100.00;64884.69;5016284;28;20026;-75
2024/01/31 02:25:56;;;;;;;6.50;2.17;;;;;;;-144.26;100.00;64884.69;5016218;28;20484;-75
2024/01/31 02:28:22;;;;;;;7.47;2.20;;;;;;;-144.26;100.00;64884.69;4998702;28;20034;-75
2024/01/31 02:30:47;;;;;;;8.90;1.90;;;;;;;-144.26;100.00;64884.69;5016397;28;20030;-76
2024/01/31 02:33:13;;;;;;;7.30;1.95;;;;;;;-144.26;100.00;64884.69;5015970;28;20386;-75
2024/01/31 02:35:38;;;;;;;6.55;2.22;;;;;;;-144.26;100.00;64884.69;5015648;28;20465;-75
2024/01/31 02:38:04;;;;;;;5.45;1.60;;;;;;;-144.26;100.00;64884.69;5016159;28;20026;-76
2024/01/31 02:40:29;;;;;;;6.65;1.67;;;;;;;-144.26;100.00;64884.69;5015908;28;20101;-76
2024/01/31 02:42:59;;;;;;;8.27;2.20;;;;;;;-144.26;100.00;64884.69;4997808;28;20038;-75
2024/01/31 02:45:24;;;;;;;6.72;2.20;;;;;;;-144.26;100.00;64884.69;5015747;28;20032;-76
2024/01/31 02:47:50;;;;;;;8.18;2.03;;;;;;;-144.26;100.00;64884.69;5015803;28;20029;-76
2024/01/31 02:50:15;;;;;;;6.50;1.90;;;;;;;-144.26;100.00;64884.69;5015668;28;20045;-76
2024/01/31 02:52:41;;;;;;;7.53;2.10;;;;;;;-144.26;100.00;64884.69;5015761;28;20068;-75
2024/01/31 02:55:07;;;;;;;7.10;2.28;;;;;;;-144.26;100.00;64884.69;5015636;28;20025;-75
2024/01/31 02:57:34;;;;;;;8.45;2.10;;;;;;;-144.26;100.00;64884.69;5015429;28;20041;-77
2024/01/31 02:59:59;;;;;;;8.95;2.22;;;;;;;-144.26;100.00;64884.69;5015615;28;20068;-76
2024/01/31 03:02:25;;;;;;;12.00;2.85;;;;;;;-144.26;100.00;64884.69;5015630;28;20030;-76
2024/01/31 03:04:50;;;;;;;5.63;2.08;;;;;;;-144.26;100.00;64884.69;5015418;28;20080;-75
2024/01/31 03:07:16;;;;;;;8.30;2.30;;;;;;;-144.26;100.00;64884.69;5014827;28;20030;-74
2024/01/31 03:09:41;;;;;;;8.32;2.17;;;;;;;-144.26;100.00;64884.69;5015432;28;20478;-75
2024/01/31 03:12:07;;;;;;;9.13;2.20;;;;;;;-144.26;100.00;64884.69;5015331;28;20424;-75
2024/01/31 03:14:35;;;;;;;9.55;2.47;;;;;;;-144.26;100.00;64884.69;5015593;28;20037;-75
2024/01/31 03:17:01;;;;;;;9.00;2.30;;;;;;;-144.26;100.00;64884.69;5015151;28;20030;-75
2024/01/31 03:19:28;;;;;;;9.23;2.67;;;;;;;-144.26;100.00;64884.69;5015291;28;20153;-76
2024/01/31 03:21:53;;;;;;;7.03;2.00;;;;;;;-144.26;100.00;64884.69;4997548;28;20046;-75
2024/01/31 03:24:19;;;;;;;8.50;2.45;;;;;;;-144.26;100.00;64884.69;5015148;28;20065;-75
2024/01/31 03:26:44;;;;;;;10.38;2.47;;;;;;;-144.26;100.00;64884.69;5015074;28;20490;-75
2024/01/31 03:29:09;;;;;;;6.05;2.08;;;;;;;-144.26;100.00;64884.69;5014990;28;20026;-76
2024/01/31 03:31:35;;;;;;;6.25;2.20;;;;;;;-144.26;100.00;64884.69;5015062;28;20045;-76
2024/01/31 03:34:00;;;;;;;8.65;2.42;;;;;;;-144.26;100.00;64884.69;5015026;28;20056;-76
2024/01/31 03:36:26;;;;;;;6.85;2.72;;;;;;;-144.26;100.00;64884.69;5014729;28;20108;-79
2024/01/31 03:38:53;;;;;;;4.05;2.00;;;;;;;-144.26;100.00;64884.69;5014897;28;20068;-79
2024/01/31 03:41:19;;;;;;;9.50;2.63;;;;;;;-144.26;100.00;64884.69;5014631;28;20129;-79
2024/01/31 03:43:44;;;;;;;7.25;2.50;;;;;;;-144.26;100.00;64884.69;5014538;28;20101;-79
2024/01/31 03:46:09;;;;;;;6.93;2.97;;;;;;;-144.26;100.00;64884.69;5014833;28;20466;-79
2024/01/31 03:48:35;;;;;;;8.05;2.90;;;;;;;-144.26;100.00;64884.69;5014718;28;20435;-79
2024/01/31 03:51:00;;;;;;;10.88;2.70;;;;;;;-144.26;100.00;64884.69;5014735;28;20092;-79
2024/01/31 03:53:26;;;;;;;8.23;3.70;;;;;;;-144.26;100.00;64884.69;5014612;28;20384;-79
2024/01/31 03:55:51;;;;;;;9.93;2.85;;;;;;;-144.26;100.00;64884.69;4996846;28;20029;-77
2024/01/31 03:58:17;;;;;;;8.02;2.80;;;;;;;-144.26;100.00;64884.69;5014263;28;20038;-78
2024/01/31 04:00:43;;;;;;;6.53;2.80;;;;;;;-144.26;100.00;64884.69;5014664;28;20387;-78
2024/01/31 04:03:08;;;;;;;10.13;3.10;;;;;;;-144.26;100.00;64884.69;5014584;28;20025;-78
2024/01/31 04:05:33;;;;;;;7.55;2.90;;;;;;;-144.26;100.00;64884.69;5014143;28;20091;-78
2024/01/31 04:07:59;;;;;;;6.75;2.70;;;;;;;-144.26;100.00;64884.69;5014352;28;20061;-78
2024/01/31 04:10:24;;;;;;;9.73;3.38;;;;;;;-144.26;100.00;64884.69;5014289;28;20088;-78
2024/01/31 04:12:50;;;;;;;9.52;3.20;;;;;;;-144.26;100.00;64884.69;5014105;28;20030;-78
2024/01/31 04:15:15;;;;;;;9.60;3.03;;;;;;;-144.26;100.00;64884.69;5014162;28;20058;-78
2024/01/31 04:17:41;;;;;;;8.90;3.10;;;;;;;-144.26;100.00;64884.69;5013530;28;20034;-77
2024/01/31 04:20:07;;;;;;;10.35;3.22;;;;;;;-144.26;100.00;64884.69;5013707;28;20044;-78
2024/01/31 04:22:32;;;;;;;11.50;3.40;;;;;;;-144.26;100.00;64884.69;5014116;28;20034;-78
2024/01/31 04:24:57;;;;;;;10.35;3.47;;;;;;;-144.26;100.00;64884.69;5013959;28;20041;-79
2024/01/31 04:27:23;;;;;;;9.57;3.38;;;;;;;-144.26;100.00;64884.69;5013949;28;20494;-79
2024/01/31 04:29:48;;;;;;;9.20;4.20;;;;;;;-144.26;100.00;64884.69;5013876;28;20052;-76
2024/01/31 04:32:13;;;;;;;11.48;4.40;;;;;;;-144.26;100.00;64884.69;4996222;28;20038;-79
2024/01/31 04:34:39;;;;;;;10.77;4.95;;;;;;;-144.26;100.00;64884.69;5013973;28;20026;-77
2024/01/31 04:37:05;;;;;;;19.05;15.30;;;;;;;-144.26;100.00;64884.69;4995943;28;20419;-79
2024/01/31 04:39:30;;;;;;;24.40;16.77;;;;;;;-144.26;100.00;64884.69;5013551;28;20030;-77
2024/01/31 04:41:55;;;;;;;12.70;7.25;;;;;;;-144.26;100.00;64884.69;5013682;28;20064;-77
2024/01/31 04:44:21;;;;;;;12.05;5.38;;;;;;;-144.26;100.00;64884.69;5013582;28;20036;-76
2024/01/31 04:46:46;;;;;;;12.02;5.10;;;;;;;-144.26;100.00;64884.69;5013885;28;20042;-78
2024/01/31 04:49:11;;;;;;;11.65;5.05;;;;;;;-144.26;100.00;64884.69;5013679;28;20030;-76
2024/01/31 04:51:41;;;;;;;12.50;5.90;;;;;;;-144.26;100.00;64884.69;5013472;28;20037;-77
2024/01/31 04:54:06;;;;;;;13.13;5.40;;;;;;;-144.26;100.00;64884.69;4995784;28;20116;-76
2024/01/31 04:56:32;;;;;;;10.57;5.50;;;;;;;-144.26;100.00;64884.69;5013571;28;20535;-76
2024/01/31 04:58:57;;;;;;;12.82;6.10;;;;;;;-144.26;100.00;64884.69;5013467;28;20045;-78
2024/01/31 05:01:22;;;;;;;12.10;5.88;;;;;;;-144.26;100.00;64884.69;5013371;28;20474;-78
2024/01/31 05:03:48;;;;;;;10.90;6.30;;;;;;;-144.26;100.00;64884.69;5013444;28;20033;-79
2024/01/31 05:06:13;;;;;;;17.08;6.20;;;;;;;-144.26;100.00;64884.69;4995614;28;20041;-78
2024/01/31 05:08:38;;;;;;;14.80;7.05;;;;;;;-144.26;100.00;64884.69;4995740;28;20432;-78
2024/01/31 05:11:04;;;;;;;17.65;7.50;;;;;;;-144.26;100.00;64884.69;5013405;28;20037;-77
2024/01/31 05:13:29;;;;;;;13.35;7.28;;;;;;;-144.26;100.00;64884.69;5013362;28;20033;-75
2024/01/31 05:15:54;;;;;;;13.45;6.95;;;;;;;-144.26;100.00;64884.69;5013657;28;20040;-79
2024/01/31 05:18:20;;;;;;;13.55;7.15;;;;;;;-144.26;100.00;64884.69;5013438;28;20134;-78
2024/01/31 05:20:45;;;;;;;15.80;7.28;;;;;;;-144.26;100.00;64884.69;5013175;28;20108;-77
2024/01/31 05:23:10;;;;;;;14.85;7.47;;;;;;;-144.26;100.00;64884.69;5013077;28;20053;-77
2024/01/31 05:25:36;;;;;;;17.52;7.22;;;;;;;-144.26;100.00;64884.69;5013155;28;20481;-78
2024/01/31 05:28:01;;;;;;;17.88;8.45;;;;;;;-144.26;100.00;64884.69;5013325;28;20026;-78
2024/01/31 05:30:27;;;;;;;16.95;7.75;;;;;;;-144.26;100.00;64884.69;5012774;28;20536;-76
2024/01/31 05:32:52;;;;;;;15.25;7.85;;;;;;;-144.26;100.00;64884.69;5012996;28;20022;-78
2024/01/31 05:35:18;;;;;;;17.85;8.65;;;;;;;-144.26;100.00;64884.69;5013034;28;20425;-76
2024/01/31 05:37:43;;;;;;;17.10;9.02;;;;;;;-144.26;100.00;64884.69;5013031;28;20109;-77
2024/01/31 05:40:11;;;;;;;17.20;9.10;;;;;;;-144.26;100.00;64884.69;5013118;28;20472;-76
2024/01/31 05:42:36;;;;;;;18.05;9.50;;;;;;;-144.26;100.00;64884.69;5012876;28;20044;-78
2024/01/31 05:45:03;;;;;;;20.35;9.82;;;;;;;-144.26;100.00;64884.69;5013092;28;20436;-75
2024/01/31 05:47:28;;;;;;;21.70;9.65;;;;;;;-144.26;100.00;64884.69;5012818;28;20030;-75
2024/01/31 05:49:53;;;;;;;15.40;9.50;;;;;;;-144.26;100.00;64884.69;5012960;28;20088;-76
2024/01/31 05:52:18;;;;;;;17.02;9.27;;;;;;;-144.26;100.00;64884.69;5012916;28;20118;-75
2024/01/31 05:54:44;;;;;;;20.92;10.10;;;;;;;-144.26;100.00;64884.69;5013025;28;20080;-75
2024/01/31 05:57:09;;;;;;;21.40;9.75;;;;;;;-144.26;100.00;64884.69;5012926;28;20061;-76
2024/01/31 05:59:39;;;;;;;22.50;10.00;;;;;;;-144.26;100.00;64884.69;4994869;28;20045;-75
2024/01/31 06:02:05;;;;;;;18.35;10.50;;;;;;;-144.26;100.00;64884.69;5012778;28;20030;-75
2024/01/31 06:04:30;;;;;;;17.35;10.43;;;;;;;-144.26;100.00;64884.69;4995173;28;20029;-76
2024/01/31 06:06:55;;;;;;;20.73;10.65;;;;;;;-144.26;100.00;64884.69;5012661;28;20034;-75
2024/01/31 06:09:21;;;;;;;20.80;11.68;;;;;;;-144.26;100.00;64884.69;5012739;28;20022;-75
2024/01/31 06:11:46;;;;;;;20.90;11.20;;;;;;;-144.26;100.00;64884.69;5012835;28;20030;-76
2024/01/31 06:14:11;;;;;;;20.60;11.40;;;;;;;-144.26;100.00;64884.69;5012836;28;20076;-75
2024/01/31 06:16:37;;;;;;;23.63;12.15;;;;;;;-144.26;100.00;64884.69;5012762;28;20041;-76
2024/01/31 06:19:02;;;;;;;18.13;11.20;;;;;;;-144.26;100.00;64884.69;5012452;28;20028;-76
2024/01/31 06:21:28;;;;;;;21.25;11.48;;;;;;;-144.26;100.00;64884.69;5012813;28;20081;-75
2024/01/31 06:23:54;;;;;;;21.05;11.50;;;;;;;-144.26;100.00;64884.69;5012526;28;20040;-76
2024/01/31 06:26:19;;;;;;;20.30;11.35;;;;;;;-144.26;100.00;64884.69;5012747;28;20041;-76
2024/01/31 06:28:48;;;;;;;19.20;11.10;;;;;;;-144.26;100.00;64884.69;5012679;28;20030;-76
2024/01/31 06:31:16;;;;;;;21.58;12.25;;;;;;;-144.26;100.00;64884.69;5012446;28;20040;-76
2024/01/31 06:33:42;;;;;;;20.35;11.15;;;;;;;-144.26;100.00;64884.69;5012356;28;20050;-76
2024/01/31 06:36:08;;;;;;;24.35;11.95;;;;;;;-144.26;100.00;64884.69;5012642;28;20445;-75
2024/01/31 06:38:33;;;;;;;19.90;11.23;;;;;;;-144.26;100.00;64884.69;5012558;28;20440;-76
2024/01/31 06:40:59;;;;;;;23.00;12.35;;;;;;;-144.26;100.00;64884.69;4994706;28;20037;-77
2024/01/31 06:43:24;;;;;;;22.67;11.82;;;;;;;-144.26;100.00;64884.69;5015765;28;20041;-75
2024/01/31 06:45:50;;;;;;;29.10;13.63;;;;;;;-144.26;100.00;64884.69;5015774;28;20438;-76
2024/01/31 06:48:16;;;;;;;22.38;12.60;;;;;;;-144.26;100.00;64884.69;5015828;28;20129;-75
2024/01/31 06:50:41;;;;;;;20.98;11.85;;;;;;;-144.26;100.00;64884.69;5015813;28;20068;-75
2024/01/31 06:53:06;;;;;;;24.67;13.07;;;;;;;-144.26;100.00;64884.69;5015844;28;20458;-76
2024/01/31 06:55:32;;;;;;;21.30;12.98;;;;;;;-144.26;100.00;64884.69;5015649;28;20087;-76
2024/01/31 06:57:57;;;;;;;25.38;13.15;;;;;;;-144.26;100.00;64884.69;5015895;28;20030;-77
2024/01/31 07:00:23;;;;;;;27.58;14.50;;;;;;;-144.26;100.00;64884.69;5015429;28;20053;-74
2024/01/31 07:02:50;;;;;;;26.20;13.68;;;;;;;-144.26;100.00;64884.69;5015577;28;20040;-77
2024/01/31 07:05:15;;;;;;;25.30;14.00;;;;;;;-144.26;100.00;64884.69;5015458;28;20026;-76
2024/01/31 07:07:41;;;;;;;26.52;15.50;;;;;;;-144.26;100.00;64884.69;5015482;28;20037;-76
2024/01/31 07:10:07;;;;;;;22.83;14.48;;;;;;;-144.26;100.00;64884.69;5015626;28;20037;-75
2024/01/31 07:12:32;;;;;;;27.08;14.27;;;;;;;-144.26;100.00;64884.69;5015435;28;20029;-76
2024/01/31 07:14:57;;;;;;;23.52;14.95;;;;;;;-144.26;100.00;64884.69;5015007;28;20389;-76
2024/01/31 07:17:23;;;;;;;25.15;14.85;;;;;;;-144.26;100.00;64884.69;5015174;28;20102;-76
2024/01/31 07:19:48;;;;;;;29.60;14.93;;;;;;;-144.26;100.00;64884.69;5015279;28;20030;-76
2024/01/31 07:22:13;;;;;;;25.35;14.95;;;;;;;-144.26;100.00;64884.69;5015063;28;20030;-76
2024/01/31 07:24:41;;;;;;;26.35;15.57;;;;;;;-144.26;100.00;64884.69;5015016;28;20030;-78
2024/01/31 07:27:06;;;;;;;26.00;15.82;;;;;;;-144.26;100.00;64884.69;5015109;28;20022;-76
2024/01/31 07:29:32;;;;;;;28.98;15.75;;;;;;;-144.26;100.00;64884.69;5013054;28;20026;-75
2024/01/31 07:31:57;;;;;;;25.95;16.83;;;;;;;-144.26;100.00;64884.69;5015304;28;20022;-76
2024/01/31 07:34:23;;;;;;;27.08;16.95;;;;;;;-144.26;100.00;64884.69;5014900;28;20381;-76
2024/01/31 07:36:48;;;;;;;25.58;16.42;;;;;;;-144.26;100.00;64884.69;5014619;28;20030;-77
2024/01/31 07:39:14;;;;;;;28.00;16.52;;;;;;;-144.26;100.00;64884.69;5014469;28;20426;-75
2024/01/31 07:41:40;;;;;;;25.75;16.35;;;;;;;-144.26;100.00;64884.69;4996764;28;20042;-78
2024/01/31 07:44:05;;;;;;;28.42;16.90;;;;;;;-144.26;100.00;64884.69;5014961;28;20101;-78
2024/01/31 07:46:31;;;;;;;27.33;16.90;;;;;;;-144.26;100.00;64884.69;5014756;28;20466;-81
2024/01/31 07:48:56;;;;;;;28.35;16.98;;;;;;;-144.26;100.00;64884.69;5014601;28;20425;-80
2024/01/31 07:51:21;;;;;;;27.92;16.70;;;;;;;-144.26;100.00;64884.69;5014660;28;20050;-79
2024/01/31 07:53:47;;;;;;;26.23;16.88;;;;;;;-144.26;100.00;64884.69;5014183;28;20131;-79
2024/01/31 07:56:12;;;;;;;28.77;17.35;;;;;;;-144.26;100.00;64884.69;5016963;28;20049;-80
2024/01/31 07:58:37;;;;;;;25.15;16.80;;;;;;;-144.26;100.00;64884.69;5034375;28;20033;-79
2024/01/31 08:01:03;;;;;;;27.60;18.08;;;;;;;-144.26;100.00;64884.69;5034349;28;20112;-77
2024/01/31 08:03:28;;;;;;;24.45;17.00;;;;;;;-144.26;100.00;64884.69;5034276;28;20025;-76
2024/01/31 08:05:54;;;;;;;29.23;17.50;;;;;;;-144.26;100.00;64884.69;5034199;28;20345;-77
2024/01/31 08:08:19;;;;;;;29.27;18.15;;;;;;;-144.26;100.00;64884.69;5033857;28;20385;-76
2024/01/31 08:10:45;;;;;;;28.80;17.60;;;;;;;-144.26;100.00;64884.69;5033959;28;20029;-76
2024/01/31 08:13:10;;;;;;;28.58;17.15;;;;;;;-144.26;100.00;64884.69;5033998;28;20031;-75
2024/01/31 08:15:35;;;;;;;32.58;18.27;;;;;;;-144.26;100.00;64884.69;5034003;28;20377;-78
2024/01/31 08:18:01;;;;;;;28.42;18.63;;;;;;;-144.26;100.00;64884.69;5033975;28;20029;-76
2024/01/31 08:20:28;;;;;;;25.55;17.20;;;;;;;-144.26;100.00;64884.69;5033918;28;20080;-76
2024/01/31 08:22:53;;;;;;;30.25;17.55;;;;;;;-144.26;100.00;64884.69;5033825;28;20033;-77
2024/01/31 08:25:18;;;;;;;29.52;18.23;;;;;;;-144.26;100.00;64884.69;5033576;28;20149;-76
2024/01/31 08:27:44;;;;;;;35.03;19.33;;;;;;;-144.26;100.00;64884.69;5033670;28;20496;-76
2024/01/31 08:30:10;;;;;;;25.95;18.38;;;;;;;-144.26;100.00;64884.69;5033661;28;20032;-77
2024/01/31 08:32:35;;;;;;;30.63;18.23;;;;;;;-144.26;100.00;64884.69;5033628;28;20035;-77
2024/01/31 08:35:02;;;;;;;33.67;19.50;;;;;;;-144.26;100.00;64884.69;5026733;28;20080;-77
2024/01/31 08:37:27;;;;;;;30.77;18.65;;;;;;;-144.26;100.00;64884.69;5013584;28;20046;-76
2024/01/31 08:39:53;;;;;;;31.92;19.85;;;;;;;-144.26;100.00;64884.69;5013450;28;20045;-77
2024/01/31 08:42:18;;;;;;;29.52;19.65;;;;;;;-144.26;100.00;64884.69;5013711;28;20087;-75
2024/01/31 08:44:43;;;;;;;33.03;20.00;;;;;;;-144.26;100.00;64884.69;5013949;28;20072;-77
2024/01/31 08:47:09;;;;;;;31.02;19.60;;;;;;;-144.26;100.00;64884.69;5013781;28;20025;-77
2024/01/31 08:49:34;;;;;;;28.67;19.15;;;;;;;-144.26;100.00;64884.69;5013557;28;20030;-77
2024/01/31 08:51:59;;;;;;;32.55;20.38;;;;;;;-144.26;100.00;64884.69;5013509;28;20026;-76
2024/01/31 08:54:25;;;;;;;33.17;20.23;;;;;;;-144.26;100.00;64884.69;4995873;28;20014;-77
2024/01/31 08:56:50;;;;;;;32.75;20.92;;;;;;;-144.26;100.00;64884.69;5024269;28;20106;-74
2024/01/31 08:59:17;;;;;;;33.75;20.30;;;;;;;-144.26;100.00;64884.69;5033339;28;20033;-74
2024/01/31 09:01:46;;;;;;;32.60;20.50;;;;;;;-144.26;100.00;64884.69;5033098;28;20025;-74
2024/01/31 09:04:13;;;;;;;30.80;20.55;;;;;;;-144.26;100.00;64884.69;5032524;28;20030;-75
2024/01/31 09:06:40;;;;;;;35.63;22.25;;;;;;;-144.26;100.00;64884.69;5069069;23;20038;-76
2024/01/31 09:09:06;;;;;;;35.47;22.05;;;;;;;-144.26;100.00;64884.69;5031497;28;20099;-75
2024/01/31 09:11:32;;;;;;;33.28;23.98;;;;;;;-144.26;100.00;64884.69;5032896;28;20026;-75
2024/01/31 09:13:57;;;;;;;36.70;24.90;;;;;;;-144.26;100.00;64884.69;5032939;28;20055;-74
2024/01/31 09:16:23;;;;;;;36.85;25.13;;;;;;;-144.26;100.00;64884.69;5032844;28;20037;-73
2024/01/31 09:18:49;;;;;;;36.58;23.83;;;;;;;-144.26;100.00;64884.69;5033078;28;20026;-76
2024/01/31 09:21:26;;;;;;;37.42;22.75;;;;;;;-144.26;100.00;64884.69;5032814;28;20483;-76
2024/01/31 09:23:55;;;;;;;38.95;23.50;;;;;;;-144.26;100.00;64884.69;5032651;28;20034;-76
2024/01/31 09:26:21;;;;;;;36.58;22.13;;;;;;;-144.26;100.00;64884.69;5032863;28;20531;-75
2024/01/31 09:28:46;;;;;;;36.80;22.05;;;;;;;-144.26;100.00;64884.69;5032860;28;20029;-77
2024/01/31 09:31:21;;;;;;;39.72;22.50;;;;;;;-144.26;100.00;64884.69;5028664;28;20123;-76
2024/01/31 09:33:48;;;;;;;37.13;22.48;;;;;;;-144.26;100.00;64884.69;5012898;28;20026;-75
2024/01/31 09:36:13;;;;;;;38.50;22.50;;;;;;;-144.26;100.00;64884.69;5013299;28;20083;-77
2024/01/31 09:38:39;;;;;;;37.55;23.27;;;;;;;-144.26;100.00;64884.69;5012969;28;20112;-76
2024/01/31 09:41:04;;;;;;;36.20;22.33;;;;;;;-144.26;100.00;64884.69;5012838;28;20359;-76
2024/01/31 09:43:30;;;;;;;40.58;23.98;;;;;;;-144.26;100.00;64884.69;5012972;28;20022;-77
2024/01/31 09:45:58;;;;;;;41.08;23.92;;;;;;;-144.26;100.00;64884.69;5012976;28;20032;-77
2024/01/31 09:48:24;;;;;;;42.25;24.75;;;;;;;-144.26;100.00;64884.69;5012994;28;20033;-76
2024/01/31 09:50:49;;;;;;;39.35;22.55;;;;;;;-144.26;100.00;64884.69;5012878;28;20470;-76
2024/01/31 09:53:15;;;;;;;38.58;24.05;;;;;;;-144.26;100.00;64884.69;5012838;28;20021;-75
2024/01/31 09:55:43;;;;;;;41.17;24.88;;;;;;;-144.26;100.00;64884.69;5012787;28;20458;-76
2024/01/31 09:58:08;;;;;;;39.58;24.73;;;;;;;-144.26;100.00;64884.69;5012877;28;20034;-76
2024/01/31 10:00:34;;;;;;;41.35;25.30;;;;;;;-144.26;100.00;64884.69;5013114;28;20033;-76
2024/01/31 10:02:59;;;;;;;44.70;25.52;;;;;;;-144.26;100.00;64884.69;5012743;28;20104;-75
2024/01/31 10:05:25;;;;;;;40.13;24.95;;;;;;;-144.26;100.00;64884.69;5012888;28;20354;-77
2024/01/31 10:08:00;;;;;;;40.75;24.55;;;;;;;-144.26;100.00;64884.69;5012430;28;20112;-77
2024/01/31 10:10:27;;;;;;;38.40;23.30;;;;;;;-144.26;100.00;64884.69;5012745;28;20026;-76
2024/01/31 10:12:53;;;;;;;39.60;24.10;;;;;;;-144.26;100.00;64884.69;5012933;28;20075;-76
2024/01/31 10:15:18;;;;;;;39.10;24.13;;;;;;;-144.26;100.00;64884.69;5013514;28;20026;-75
2024/01/31 10:17:43;;;;;;;35.67;22.67;;;;;;;-144.26;100.00;64884.69;5016325;28;20135;-75
2024/01/31 10:20:10;;;;;;;35.28;22.63;;;;;;;-144.26;100.00;64884.69;5016417;28;20029;-76
2024/01/31 10:22:36;;;;;;;36.53;22.90;;;;;;;-144.26;100.00;64884.69;5016314;28;20041;-75
2024/01/31 10:25:04;;;;;;;35.97;22.15;;;;;;;-144.26;100.00;64884.69;5016110;28;20381;-74
2024/01/31 10:27:30;;;;;;;35.22;22.80;;;;;;;-144.26;100.00;64884.69;5016136;28;20081;-75
2024/01/31 10:29:55;;;;;;;35.20;22.25;;;;;;;-144.26;100.00;64884.69;5016092;28;20034;-77
2024/01/31 10:32:21;;;;;;;32.97;22.00;;;;;;;-144.26;100.00;64884.69;5014854;28;20037;-80
2024/01/31 10:34:48;;;;;;;35.60;21.45;;;;;;;-144.26;100.00;64884.69;5016141;28;20524;-78
2024/01/31 10:37:14;;;;;;;29.42;19.42;;;;;;;-144.26;100.00;64884.69;5014023;28;20074;-79
2024/01/31 10:39:40;;;;;;;32.03;19.17;;;;;;;-144.26;100.00;64884.69;5015893;28;20466;-79
2024/01/31 10:42:06;;;;;;;26.52;19.05;;;;;;;-144.26;100.00;64884.69;5016062;28;20064;-75
2024/01/31 10:44:37;;;;;;;28.30;18.45;;;;;;;-144.26;100.00;64884.69;5016013;28;20030;-74
2024/01/31 10:47:04;;;;;;;27.38;18.02;;;;;;;-144.26;100.00;64884.69;5016074;28;20041;-74
2024/01/31 10:49:29;;;;;;;27.00;18.50;;;;;;;-144.26;100.00;64884.69;5016055;28;20393;-74
2024/01/31 10:51:56;;;;;;;26.67;17.42;;;;;;;-144.26;100.00;64884.69;5015801;28;20033;-76